Aérodrome :
LOGIN :

S'inscrire | Disclaimer

   EN    FR    IT 

 










Légende :    VFR   VFR Marginal   IFR   IFR Intensif   IFR Très Intensif
Visi : 
Plafond : 
>= 8 km
>= 3000ft
5 à 8 km
1000 à 3000 ft
1500m à 5 km
500 à 1000 ft
800 à 1500m
200 à 500 ft
< 800m
< 200 ft
Symboles :   Orages  Brouillard  Fortes neiges  Fortes précipitations  Vent > 20 kt
SIGMETs :   Divers  Orages  Givrage  Turbulence  Onde Orograph.  Cendres Volcan.







- Altitude de l'aérodrome : 915 ft
- Code IATA : LUG


LSZA - Lugano

DERNIER METAR :
  • 261720Z 19004KT 4000 RA BR SCT003 SCT015 BKN022 10/10 Q1007 NOSIG

METARs EXPIRÉS :
  • 261650Z VRB02KT 4000 RA BR FEW004 SCT020 BKN030 10/10 Q1007 NOSIG
  • 261620Z 21002KT 5000 -RA BR FEW004 SCT022 BKN035 10/10 Q1007 NOSIG
  • 261550Z VRB01KT 5000 -RA BR FEW004 SCT022 BKN035 10/10 Q1007 NOSIG
  • 261520Z VRB01KT 4500 -RA BR FEW004 SCT025 BKN035 11/10 Q1008 TEMPO 5000
  • 261450Z VRB03KT 5000 -RA BR FEW004 BKN035 OVC045 10/09 Q1008 NOSIG

TAF TAF LSZA
Valide du 26 à 15h jusqu'au 27 à 00h UTC


261425Z 2615/2624 VRB03KT 6000 RA FEW004 BKN030
TEMPO 2615/2624 4500 RA
ATIS : +41 22 417 40 88
Pas de NOTAMs connus pour ce terrain.



MET'MAP, la Météo Aéronautique d'un coup d'oeil ! - Copyright ORBIFLY Décembre 2007 - Disclaimer

ORBIFLY MET'MAP TEAM :

Programmation & Développement : Alexandra Zaïnal
Conception & Développement : Baudouin d'Aumeries
Co-Programmation & Développement : Marc-Olivier Méhu
Soutien technique & logistique : Manuel Goepfert

Contact : metmap@orbifly.com




SOURCES & CREDITS :

   NOAA